メインページ
METAR-TAF:

METAR-TAF

空港 :

プンタアレナス, チリ

緯度: 53-00S, 経度: 070-51W, 海抜: 37m

現時点の気象観測

当レポートは13分前の19:00(UTC)に作成
西/北西の風 25kt
気温 16°C
湿度 45%
気圧 1006 hPa
視程10km以上
1,500メートル以下は雲なし、積乱雲なし

METAR: SCCI 251900Z 29025KT CAVOK 16/04 Q1006 NOSIG

時間: 16:13 (19:13 UTC)

予報

当レポートは2時間41分前の16:32(UTC)に作成
予報は25日の 18時(UTC)から 26日の 18時(UTC)まで有効
西/北西の風 24kt、最大35ktの突風を伴う
視程10km以上
高度4000ftの雲はほとんどない
26日の 00時(UTC)から 26日の 10時(UTC)まで一時的に
西/北西の風 30kt、最大40ktの突風を伴う
視程: 9000m
高度3500ftの千切れ雲あり
弱いにわか雨
26日の 02時(UTC)から 26日の 04時(UTC)まで徐々に
西/北西の風 25kt、最大35ktの突風を伴う
高度4000ftの雲は散在している
26日の 09時(UTC)から 26日の 11時(UTC)まで徐々に
西の風 20kt、最大30ktの突風を伴う
26日の 12時(UTC)から 26日の 14時(UTC)まで徐々に
西/南西の風 15kt
高度4000ftの雲はほとんどない
26日の 15時(UTC)から 26日の 17時(UTC)まで徐々に
西/南西の風 20kt、最大30ktの突風を伴う

TAF: SCCI 251632Z 2518/2618 30024G35KT 9999 FEW040 TN08/2610Z TX17/2519Z TEMPO 2600/2610 30030G40KT 9000 -SHRA BKN035 BECMG 2602/2604 30025G35KT SCT040 BECMG 2609/2611 27020G30KT BECMG 2612/2614 24015KT FEW040 BECMG 2615/2617 24020G30KT

4,000以上の空港の気象観測と天気予報(METAR報とTAF報)

利用可能な観測所は地図上に黄色い丸と赤い丸で示す。

丸の上にカーソルを重ねると観測所名を参照できる。

次にクリックすると気象観測と天気予報を参照できる。

マップの切り替え:黒色「×」印の緑ボタンをクリックして拡大、「-」印の緑ボタンをクリックして縮小、緑色の三角印をクリックして隣りの地図に切り替え


METAR-TAF: